Time;durP1;ratioP1;P1;durP2;ratioP2;P2;SDS_P1;SDS_P2;PMS_P1;PMS_P2;Temp;Humidity;BMP_temperature;BMP_pressure;BME280_temperature;BME280_humidity;BME280_pressure;Samples;Min_cycle;Max_cycle;Signal;HPM_P1;HPM_P2
2023/01/30 00:01:32;;;;;;;16.00;7.78;;;6.20;99.90;;;;;;5075448;28;20119;-61
2023/01/30 00:03:58;;;;;;;13.10;7.45;;;6.20;99.90;;;;;;5073863;28;20124;-60
2023/01/30 00:06:25;;;;;;;10.43;6.30;;;6.30;99.90;;;;;;5074983;28;20431;-61
2023/01/30 00:08:50;;;;;;;10.48;5.95;;;6.30;99.90;;;;;;5075359;28;20124;-61
2023/01/30 00:11:18;;;;;;;14.02;7.35;;;6.30;99.90;;;;;;5075219;28;20435;-61
2023/01/30 00:13:44;;;;;;;14.25;7.75;;;6.40;99.90;;;;;;5074961;28;20044;-61
2023/01/30 00:16:11;;;;;;;17.52;7.15;;;6.40;99.90;;;;;;5073908;28;20045;-61
2023/01/30 00:18:38;;;;;;;14.93;6.75;;;6.40;99.90;;;;;;5074958;28;20051;-61
2023/01/30 00:21:06;;;;;;;10.57;6.18;;;6.40;99.90;;;;;;5075168;28;20079;-61
2023/01/30 00:23:33;;;;;;;9.38;5.18;;;6.40;99.90;;;;;;5075086;28;20036;-61
2023/01/30 00:25:59;;;;;;;16.70;6.85;;;6.40;99.90;;;;;;5073773;28;20055;-61
2023/01/30 00:28:25;;;;;;;10.07;6.18;;;6.40;99.90;;;;;;5073378;28;20036;-61
2023/01/30 00:30:52;;;;;;;15.43;7.28;;;6.50;99.90;;;;;;5074859;28;20074;-61
2023/01/30 00:33:19;;;;;;;13.02;6.53;;;6.40;99.90;;;;;;5074868;28;20584;-61
2023/01/30 00:35:46;;;;;;;12.65;6.95;;;6.20;99.90;;;;;;5074844;28;20110;-62
2023/01/30 00:38:11;;;;;;;20.88;6.85;;;6.50;99.90;;;;;;5074749;28;20044;-61
2023/01/30 00:40:37;;;;;;;16.45;5.13;;;6.40;99.90;;;;;;5074741;28;20154;-61
2023/01/30 00:48:32;;;;;;;10.68;5.03;;;6.60;99.90;;;;;;5074176;28;20048;-61
2023/01/30 00:50:58;;;;;;;10.98;5.15;;;6.50;99.90;;;;;;5074389;28;20032;-61
2023/01/30 00:53:24;;;;;;;14.63;5.95;;;6.60;99.90;;;;;;5074464;28;20115;-62
2023/01/30 00:55:50;;;;;;;10.30;5.65;;;6.60;99.90;;;;;;5074468;28;20460;-61
2023/01/30 00:58:16;;;;;;;7.30;4.13;;;6.60;99.90;;;;;;5073213;28;20040;-60
2023/01/30 01:00:42;;;;;;;10.55;5.63;;;6.60;99.90;;;;;;5074315;28;20039;-61
2023/01/30 01:03:07;;;;;;;13.00;5.18;;;6.60;99.90;;;;;;5074237;28;20032;-61
2023/01/30 01:05:33;;;;;;;8.00;4.72;;;6.70;99.90;;;;;;5073955;28;20059;-61
2023/01/30 01:07:58;;;;;;;6.88;4.10;;;6.70;99.90;;;;;;5073875;28;20041;-61
2023/01/30 01:10:24;;;;;;;11.88;5.72;;;6.70;99.90;;;;;;5073733;28;20479;-62
2023/01/30 01:12:53;;;;;;;10.95;4.80;;;6.80;99.90;;;;;;5055981;28;20036;-60
2023/01/30 01:15:22;;;;;;;6.60;3.92;;;6.50;99.90;;;;;;5074008;28;20064;-61
2023/01/30 01:17:48;;;;;;;9.32;4.05;;;6.70;99.90;;;;;;5072741;28;20499;-60
2023/01/30 01:20:15;;;;;;;5.57;3.33;;;6.60;99.90;;;;;;5073589;28;20036;-61
2023/01/30 01:22:41;;;;;;;5.57;2.90;;;6.70;99.90;;;;;;5055934;28;20052;-61
2023/01/30 01:25:09;;;;;;;9.02;4.68;;;6.60;99.90;;;;;;5073781;28;20148;-60
2023/01/30 01:27:35;;;;;;;11.15;3.30;;;6.70;99.90;;;;;;5073778;28;20041;-61
2023/01/30 01:30:01;;;;;;;6.00;3.30;;;6.60;99.90;;;;;;5073746;28;20384;-61
2023/01/30 01:32:26;;;;;;;12.52;3.38;;;6.70;99.90;;;;;;5073644;28;20041;-60
2023/01/30 01:34:52;;;;;;;10.02;3.55;;;7.40;99.90;;;;;;5073577;28;20037;-60
2023/01/30 01:37:18;;;;;;;8.38;2.67;;;6.60;99.90;;;;;;5073532;28;20467;-60
2023/01/30 01:42:34;;;;;;;4.78;2.58;;;6.60;99.90;;;;;;5073470;28;20045;-61
2023/01/30 01:45:06;;;;;;;3.90;2.05;;;6.60;99.90;;;;;;5072212;28;20048;-60
2023/01/30 01:47:33;;;;;;;5.72;2.30;;;6.60;99.90;;;;;;5071864;28;20049;-61
2023/01/30 01:49:59;;;;;;;5.53;1.88;;;6.50;99.90;;;;;;5073399;28;20040;-61
2023/01/30 01:52:25;;;;;;;3.65;1.85;;;6.60;99.90;;;;;;5073346;28;20395;-61
2023/01/30 01:55:01;;;;;;;4.40;2.15;;;6.60;99.90;;;;;;5073389;28;20141;-61
2023/01/30 01:57:39;;;;;;;4.78;2.10;;;6.60;99.90;;;;;;5073250;28;20047;-60
2023/01/30 02:00:14;;;;;;;8.32;2.03;;;6.50;99.90;;;;;;5073336;28;20510;-61
2023/01/30 02:02:46;;;;;;;2.55;1.55;;;6.50;99.90;;;;;;5072884;28;20146;-61
2023/01/30 02:05:14;;;;;;;3.30;1.50;;;6.60;99.90;;;;;;5073003;28;20423;-60
2023/01/30 02:07:45;;;;;;;4.15;1.92;;;6.60;99.90;;;;;;5073117;28;20053;-61
2023/01/30 02:10:16;;;;;;;;;;;6.70;99.90;;;;;;5073419;28;20047;-60
2023/01/30 02:12:43;;;;;;;1.57;1.13;;;6.60;99.90;;;;;;5073168;28;19960;-60
2023/01/30 02:15:09;;;;;;;4.53;1.70;;;6.60;99.90;;;;;;5072724;28;20271;-60
2023/01/30 02:17:35;;;;;;;3.63;1.92;;;6.60;99.90;;;;;;5073015;28;20043;-60
2023/01/30 02:20:42;;;;;;;1.70;1.00;;;6.60;99.90;;;;;;5073066;28;20028;-60
2023/01/30 02:23:50;;;;;;;3.20;1.35;;;6.60;99.90;;;;;;5041503;28;20051;-60
2023/01/30 02:26:41;;;;;;;2.00;1.20;;;6.60;99.90;;;;;;5072935;28;20045;-61
2023/01/30 02:29:22;;;;;;;2.42;1.35;;;6.60;99.90;;;;;;5071375;28;20048;-61
2023/01/30 02:31:50;;;;;;;;;;;6.70;99.90;;;;;;5073275;28;20041;-60
2023/01/30 02:34:29;;;;;;;4.78;1.40;;;6.70;99.90;;;;;;5072928;28;20402;-61
2023/01/30 02:37:39;;;;;;;2.58;1.27;;;6.70;99.90;;;;;;5072845;28;20391;-61
2023/01/30 02:40:38;;;;;;;3.30;1.17;;;6.70;99.90;;;;;;5072882;28;20037;-61
2023/01/30 02:43:38;;;;;;;3.67;1.40;;;6.70;99.90;;;;;;5072444;28;20045;-61
2023/01/30 02:46:33;;;;;;;5.15;2.15;;;6.70;99.90;;;;;;5072460;28;20040;-61
2023/01/30 02:49:12;;;;;;;2.72;1.27;;;6.70;99.90;;;;;;5072124;28;20098;-61
2023/01/30 02:51:41;;;;;;;10.20;2.60;;;6.70;99.90;;;;;;5072687;28;20076;-61
2023/01/30 02:54:10;;;;;;;5.63;1.50;;;6.70;99.90;;;;;;5072379;28;20040;-62
2023/01/30 02:56:44;;;;;;;6.15;2.13;;;6.70;99.90;;;;;;5072666;28;20043;-61
2023/01/30 02:59:12;;;;;;;3.50;1.27;;;6.70;99.90;;;;;;5072604;28;20042;-60
2023/01/30 03:05:03;;;;;;;7.15;1.65;;;7.00;99.90;;;;;;5051224;28;20438;-63
2023/01/30 03:07:44;;;;;;;3.42;1.60;;;6.80;99.90;;;;;;5052158;28;20037;-62
2023/01/30 03:10:28;;;;;;;14.38;1.67;;;6.80;99.90;;;;;;5052222;28;20059;-62
2023/01/30 03:13:13;;;;;;;4.30;1.50;;;6.80;99.90;;;;;;5052483;28;20072;-63
2023/01/30 03:15:49;;;;;;;3.33;1.35;;;6.80;99.90;;;;;;5052530;28;20385;-63
2023/01/30 03:18:17;;;;;;;9.40;1.95;;;6.80;99.90;;;;;;5050952;28;20426;-62
2023/01/30 03:20:43;;;;;;;5.72;1.40;;;6.90;99.90;;;;;;5051702;28;20043;-62
2023/01/30 03:23:09;;;;;;;3.40;1.50;;;6.90;99.90;;;;;;5055854;28;20037;-62
2023/01/30 03:25:38;;;;;;;13.95;1.92;;;6.90;99.90;;;;;;5054890;28;20128;-62
2023/01/30 03:28:05;;;;;;;10.68;1.92;;;7.00;99.90;;;;;;5054619;28;20072;-62
2023/01/30 03:30:31;;;;;;;7.53;2.05;;;6.90;99.90;;;;;;5056010;28;20557;-63
2023/01/30 03:32:57;;;;;;;3.25;1.55;;;6.90;99.90;;;;;;5055627;28;20037;-63
2023/01/30 03:35:23;;;;;;;6.75;1.55;;;6.90;99.90;;;;;;5056007;28;20048;-62
2023/01/30 03:37:49;;;;;;;11.38;1.73;;;6.90;99.90;;;;;;5055859;28;20044;-62
2023/01/30 03:40:16;;;;;;;11.23;2.40;;;6.90;99.90;;;;;;5054668;28;20060;-62
2023/01/30 03:42:41;;;;;;;8.05;1.02;;;6.90;99.90;;;;;;5054246;28;20041;-62
2023/01/30 03:45:08;;;;;;;17.08;2.10;;;6.80;99.90;;;;;;5054118;28;20070;-65
2023/01/30 03:47:34;;;;;;;11.50;2.47;;;6.90;99.90;;;;;;5055671;28;20048;-62
2023/01/30 03:49:59;;;;;;;12.88;2.05;;;6.90;99.90;;;;;;5055692;28;20087;-62
2023/01/30 03:52:25;;;;;;;7.72;1.52;;;6.80;99.90;;;;;;5055484;28;20048;-62
2023/01/30 03:54:51;;;;;;;6.20;2.55;;;6.80;99.90;;;;;;5054045;28;20049;-62
2023/01/30 03:57:16;;;;;;;5.97;2.05;;;6.70;99.90;;;;;;5053934;28;20033;-62
2023/01/30 03:59:42;;;;;;;5.75;2.03;;;6.80;99.90;;;;;;5055176;28;20109;-62
2023/01/30 04:02:08;;;;;;;8.30;1.42;;;6.80;99.90;;;;;;5055416;28;20033;-62
2023/01/30 04:04:34;;;;;;;3.47;1.33;;;6.80;99.90;;;;;;5053647;28;20084;-62
2023/01/30 04:07:00;;;;;;;5.45;1.88;;;6.70;99.90;;;;;;5055319;28;20084;-62
2023/01/30 04:09:25;;;;;;;3.28;1.15;;;6.70;99.90;;;;;;5055323;28;20102;-62
2023/01/30 04:11:51;;;;;;;6.63;1.73;;;6.70;99.90;;;;;;5053613;28;20041;-63
2023/01/30 04:14:17;;;;;;;5.15;1.75;;;6.60;99.90;;;;;;5055204;28;20503;-62
2023/01/30 04:16:44;;;;;;;6.43;1.55;;;6.60;99.90;;;;;;5055177;28;20045;-61
2023/01/30 04:19:10;;;;;;;6.68;1.90;;;6.50;99.90;;;;;;5053820;28;20083;-62
2023/01/30 04:21:35;;;;;;;4.38;1.38;;;6.50;99.90;;;;;;5055067;28;20041;-62
2023/01/30 04:24:01;;;;;;;1.42;0.90;;;6.40;99.90;;;;;;5054733;28;20040;-62
2023/01/30 04:26:27;;;;;;;11.23;1.83;;;6.30;99.90;;;;;;5037051;28;20147;-62
2023/01/30 04:28:52;;;;;;;5.70;1.33;;;6.30;99.90;;;;;;5053342;28;20067;-62
2023/01/30 04:31:18;;;;;;;3.63;1.20;;;6.30;99.90;;;;;;5054499;28;20403;-63
2023/01/30 04:33:43;;;;;;;10.27;1.83;;;6.20;99.90;;;;;;5036959;28;20412;-62
2023/01/30 04:36:09;;;;;;;4.93;1.45;;;6.10;99.90;;;;;;5054516;28;20120;-62
2023/01/30 04:38:35;;;;;;;2.17;1.20;;;6.10;99.90;;;;;;5053325;28;20048;-62
2023/01/30 04:41:01;;;;;;;12.38;0.90;;;6.10;99.90;;;;;;5053376;28;20044;-62
2023/01/30 04:43:28;;;;;;;5.03;1.63;;;6.80;99.90;;;;;;5054618;28;20510;-62
2023/01/30 04:45:54;;;;;;;4.25;1.08;;;6.10;99.90;;;;;;5054629;28;20053;-62
2023/01/30 04:48:21;;;;;;;4.30;1.33;;;6.20;99.90;;;;;;5054524;28;20036;-62
2023/01/30 04:50:48;;;;;;;8.25;1.98;;;6.20;99.90;;;;;;5054478;28;20407;-62
2023/01/30 04:53:15;;;;;;;6.68;1.27;;;6.20;99.90;;;;;;5054407;28;20138;-62
2023/01/30 04:55:40;;;;;;;6.10;1.75;;;6.10;99.90;;;;;;5053135;28;20072;-62
2023/01/30 04:58:06;;;;;;;13.43;1.70;;;6.20;99.90;;;;;;5054399;28;20060;-62
2023/01/30 05:00:32;;;;;;;4.47;1.33;;;6.00;99.90;;;;;;5052859;28;20037;-63
2023/01/30 05:02:58;;;;;;;4.65;1.33;;;6.10;99.90;;;;;;5052934;28;20041;-62
2023/01/30 05:05:24;;;;;;;5.80;1.30;;;6.10;99.90;;;;;;5052707;28;20092;-62
2023/01/30 05:07:50;;;;;;;17.40;2.22;;;6.00;99.90;;;;;;5054325;28;20036;-62
2023/01/30 05:10:17;;;;;;;10.93;1.00;;;6.00;99.90;;;;;;5054132;28;20112;-62
2023/01/30 05:12:43;;;;;;;8.07;1.13;;;5.90;99.90;;;;;;5054072;28;20120;-62
2023/01/30 05:15:10;;;;;;;3.60;1.17;;;5.90;99.90;;;;;;5052468;28;20045;-62
2023/01/30 05:17:35;;;;;;;4.25;1.50;;;5.90;99.90;;;;;;5053950;28;20029;-63
2023/01/30 05:20:02;;;;;;;4.50;1.48;;;5.90;99.90;;;;;;5054013;28;20047;-62
2023/01/30 05:22:27;;;;;;;6.57;1.65;;;5.80;99.90;;;;;;5053909;28;20044;-62
2023/01/30 05:24:53;;;;;;;11.55;1.55;;;5.80;99.90;;;;;;5052297;28;20128;-62
2023/01/30 05:27:18;;;;;;;15.80;2.60;;;5.80;99.90;;;;;;5052358;28;20095;-62
2023/01/30 05:29:44;;;;;;;9.32;1.45;;;5.80;99.90;;;;;;5053821;28;20219;-62
2023/01/30 05:32:13;;;;;;;7.25;1.60;;;5.80;99.90;;;;;;5053542;28;20039;-63
2023/01/30 05:34:38;;;;;;;2.72;1.15;;;5.80;99.90;;;;;;5052193;28;20041;-63
2023/01/30 05:37:04;;;;;;;4.18;1.88;;;5.70;99.90;;;;;;5053623;28;20036;-63
2023/01/30 05:39:30;;;;;;;6.30;1.52;;;5.80;99.90;;;;;;5053635;28;20098;-63
2023/01/30 05:41:56;;;;;;;2.92;1.52;;;5.70;99.90;;;;;;5052328;28;20052;-63
2023/01/30 05:44:21;;;;;;;6.93;1.45;;;5.70;99.90;;;;;;5053046;28;20033;-63
2023/01/30 05:46:47;;;;;;;12.88;1.10;;;5.60;99.90;;;;;;5053425;28;20449;-63
2023/01/30 05:49:12;;;;;;;6.55;1.00;;;5.60;99.90;;;;;;5053434;28;20395;-63
2023/01/30 05:51:38;;;;;;;2.67;1.23;;;5.60;99.90;;;;;;5053336;28;20051;-63
2023/01/30 05:54:03;;;;;;;10.10;1.52;;;5.60;99.90;;;;;;5053012;28;20053;-63
2023/01/30 05:56:32;;;;;;;6.47;1.83;;;5.50;99.90;;;;;;5053236;28;20033;-63
2023/01/30 05:58:58;;;;;;;9.57;1.55;;;5.50;99.90;;;;;;5052990;28;20037;-63
2023/01/30 06:01:25;;;;;;;3.70;1.33;;;5.50;99.90;;;;;;5053191;28;20040;-63
2023/01/30 06:03:50;;;;;;;5.85;1.00;;;5.50;99.90;;;;;;5052748;28;20063;-63
2023/01/30 06:06:16;;;;;;;10.38;1.23;;;5.50;99.90;;;;;;5052814;28;20049;-63
2023/01/30 06:08:42;;;;;;;5.50;1.85;;;5.50;99.90;;;;;;5053104;28;20080;-63
2023/01/30 06:11:13;;;;;;;12.77;1.30;;;5.50;99.90;;;;;;5052911;28;20476;-64
2023/01/30 06:13:39;;;;;;;3.67;1.40;;;5.50;99.90;;;;;;5051562;28;20446;-63
2023/01/30 06:16:10;;;;;;;7.00;0.88;;;5.50;99.90;;;;;;5053005;28;20036;-63
2023/01/30 06:18:37;;;;;;;6.53;1.60;;;5.50;99.90;;;;;;5053106;28;20506;-63
2023/01/30 06:21:03;;;;;;;9.55;1.80;;;5.60;99.90;;;;;;5051661;28;20111;-63
2023/01/30 06:23:29;;;;;;;3.47;1.40;;;5.50;99.90;;;;;;5052949;28;20045;-63
2023/01/30 06:25:55;;;;;;;10.13;1.95;;;5.50;99.90;;;;;;5052840;28;20433;-63
2023/01/30 06:28:22;;;;;;;2.58;0.80;;;5.60;99.90;;;;;;5051637;28;20472;-63
2023/01/30 06:30:48;;;;;;;11.32;1.75;;;5.60;99.90;;;;;;5052687;28;20079;-64
2023/01/30 06:33:14;;;;;;;11.80;1.40;;;5.60;99.90;;;;;;5052438;28;20048;-64
2023/01/30 06:35:41;;;;;;;13.82;1.75;;;5.70;99.90;;;;;;5051467;28;20041;-63
2023/01/30 06:38:12;;;;;;;5.88;1.05;;;5.70;99.90;;;;;;5034856;28;20059;-64
2023/01/30 06:40:48;;;;;;;8.70;2.25;;;5.70;99.90;;;;;;5052699;28;20480;-63
2023/01/30 06:43:14;;;;;;;15.70;3.00;;;5.70;99.90;;;;;;5051115;28;20060;-64
2023/01/30 06:45:40;;;;;;;8.32;1.05;;;5.80;99.90;;;;;;5051404;28;20087;-64
2023/01/30 06:48:06;;;;;;;9.27;1.55;;;5.70;99.90;;;;;;5052675;28;20431;-64
2023/01/30 06:50:32;;;;;;;10.68;2.50;;;5.70;99.90;;;;;;5052270;28;20052;-63
2023/01/30 06:53:02;;;;;;;7.22;1.58;;;5.70;99.90;;;;;;5051107;28;20045;-64
2023/01/30 06:55:27;;;;;;;10.10;1.50;;;5.70;99.90;;;;;;5052835;28;20420;-64
2023/01/30 06:58:10;;;;;;;3.03;0.93;;;5.80;99.90;;;;;;5056575;28;20125;-64
2023/01/30 07:00:41;;;;;;;7.53;1.80;;;5.70;99.90;;;;;;5056484;28;20033;-63
2023/01/30 07:03:14;;;;;;;3.58;1.20;;;5.70;99.90;;;;;;5056284;28;20110;-63
2023/01/30 07:05:41;;;;;;;5.65;1.27;;;5.70;99.90;;;;;;5056539;28;20550;-64
2023/01/30 07:08:07;;;;;;;7.28;1.42;;;5.80;99.90;;;;;;5056442;28;20048;-64
2023/01/30 07:10:34;;;;;;;3.38;0.80;;;5.80;99.90;;;;;;5056307;28;20044;-63
2023/01/30 07:13:00;;;;;;;3.40;0.88;;;5.80;99.90;;;;;;5055168;28;20503;-63
2023/01/30 07:15:26;;;;;;;9.38;1.35;;;5.80;99.90;;;;;;5054709;28;20041;-64
2023/01/30 07:17:52;;;;;;;10.70;1.25;;;5.80;99.90;;;;;;5056353;28;20428;-64
2023/01/30 07:20:18;;;;;;;6.95;1.15;;;5.80;99.90;;;;;;5056085;28;20072;-64
2023/01/30 07:22:52;;;;;;;6.97;0.90;;;5.80;99.90;;;;;;5054623;28;20081;-64
2023/01/30 07:25:19;;;;;;;3.60;1.88;;;5.90;99.90;;;;;;5055966;28;20041;-63
2023/01/30 07:27:49;;;;;;;11.05;1.63;;;5.90;99.90;;;;;;5055951;28;20045;-63
2023/01/30 07:30:16;;;;;;;13.25;1.50;;;5.90;99.90;;;;;;5055988;28;20044;-64
2023/01/30 07:32:41;;;;;;;15.70;2.45;;;5.90;99.90;;;;;;5055882;28;20092;-64
2023/01/30 07:35:07;;;;;;;7.63;1.17;;;6.00;99.90;;;;;;5055839;28;20077;-64
2023/01/30 07:37:33;;;;;;;4.65;1.23;;;5.90;99.90;;;;;;5054589;28;20041;-64
2023/01/30 07:39:58;;;;;;;4.40;1.27;;;6.00;99.90;;;;;;5037547;28;20044;-64
2023/01/30 07:42:24;;;;;;;5.70;1.92;;;6.00;99.90;;;;;;5054405;28;20045;-63
2023/01/30 07:44:49;;;;;;;10.52;1.80;;;6.00;99.90;;;;;;5055639;28;20033;-63
2023/01/30 07:47:15;;;;;;;4.05;1.13;;;6.40;99.90;;;;;;5054452;28;20041;-64
2023/01/30 07:49:41;;;;;;;14.77;1.92;;;6.00;99.90;;;;;;5055668;28;20044;-63
2023/01/30 07:52:06;;;;;;;9.63;1.52;;;6.00;99.90;;;;;;5037255;28;20041;-64
2023/01/30 07:54:32;;;;;;;11.20;1.48;;;6.00;99.90;;;;;;5055248;28;20064;-64
2023/01/30 07:56:57;;;;;;;11.18;1.40;;;6.00;99.90;;;;;;5055436;28;20037;-64
2023/01/30 07:59:23;;;;;;;12.63;1.98;;;6.00;99.90;;;;;;5055397;28;20041;-64
2023/01/30 08:01:48;;;;;;;8.50;1.05;;;6.00;99.90;;;;;;5055331;28;20072;-64
2023/01/30 08:04:14;;;;;;;8.80;1.77;;;6.00;99.90;;;;;;5053617;28;20127;-64
2023/01/30 08:06:39;;;;;;;10.23;1.77;;;6.10;99.90;;;;;;5054539;28;20045;-63
2023/01/30 08:09:06;;;;;;;12.63;2.00;;;6.10;99.90;;;;;;5053626;28;20045;-63
2023/01/30 08:11:31;;;;;;;4.15;1.08;;;6.10;99.90;;;;;;5053531;28;20136;-64
2023/01/30 08:13:57;;;;;;;8.75;1.50;;;6.10;99.90;;;;;;5055046;28;20060;-62
2023/01/30 08:16:22;;;;;;;5.07;1.10;;;6.20;99.90;;;;;;5054986;28;20094;-65
2023/01/30 08:18:48;;;;;;;5.18;1.02;;;6.20;99.90;;;;;;5053473;28;20041;-64
2023/01/30 08:21:13;;;;;;;5.10;1.08;;;6.30;99.90;;;;;;5054950;28;20036;-64
2023/01/30 08:23:39;;;;;;;9.85;1.80;;;6.30;99.90;;;;;;5053653;28;20041;-63
2023/01/30 08:26:05;;;;;;;9.05;1.67;;;6.30;99.90;;;;;;5054858;28;20053;-64
2023/01/30 08:28:31;;;;;;;8.50;2.15;;;6.30;99.90;;;;;;5054588;28;20067;-63
2023/01/30 08:30:57;;;;;;;7.85;1.33;;;6.30;99.90;;;;;;5054650;28;20483;-64
2023/01/30 08:33:23;;;;;;;9.90;1.38;;;6.30;99.90;;;;;;5054470;28;20124;-63
2023/01/30 08:35:49;;;;;;;11.95;2.45;;;6.40;99.90;;;;;;5054465;28;20396;-64
2023/01/30 08:38:15;;;;;;;4.70;1.08;;;6.40;99.90;;;;;;5053172;28;20047;-64
2023/01/30 08:40:40;;;;;;;8.70;0.70;;;6.30;99.90;;;;;;5054795;28;20112;-64
2023/01/30 08:43:06;;;;;;;8.05;1.70;;;6.30;99.90;;;;;;5054332;28;20036;-65
2023/01/30 08:45:32;;;;;;;5.05;1.55;;;6.40;99.90;;;;;;5054599;28;20041;-63
2023/01/30 08:48:07;;;;;;;8.73;1.08;;;6.40;99.90;;;;;;5054513;28;20063;-63
2023/01/30 08:50:33;;;;;;;3.72;0.70;;;6.30;99.90;;;;;;5054507;28;20387;-65
2023/01/30 08:53:04;;;;;;;6.03;1.65;;;6.30;99.90;;;;;;5054350;28;20036;-63
2023/01/30 08:55:30;;;;;;;13.52;3.78;;;6.40;99.90;;;;;;5054186;28;20044;-63
2023/01/30 08:57:56;;;;;;;5.05;1.13;;;6.40;99.90;;;;;;5054306;28;20055;-64
2023/01/30 09:00:21;;;;;;;8.85;1.70;;;6.40;99.90;;;;;;5054019;28;20488;-63
2023/01/30 09:02:47;;;;;;;9.25;1.73;;;6.40;99.90;;;;;;5053912;28;20474;-64
2023/01/30 09:05:13;;;;;;;17.80;2.05;;;6.40;99.90;;;;;;5054145;28;20174;-63
2023/01/30 09:07:38;;;;;;;10.73;1.48;;;6.40;99.90;;;;;;5054181;28;20490;-64
2023/01/30 09:10:04;;;;;;;11.00;2.00;;;6.40;99.90;;;;;;5054087;28;20047;-64
2023/01/30 09:12:30;;;;;;;9.70;2.03;;;6.40;99.90;;;;;;5053684;28;20037;-64
2023/01/30 09:14:57;;;;;;;6.32;1.60;;;6.50;99.90;;;;;;5053986;28;20045;-64
2023/01/30 09:17:23;;;;;;;10.95;2.13;;;6.60;99.90;;;;;;5052452;28;20048;-64
2023/01/30 09:19:49;;;;;;;4.18;0.82;;;6.60;99.90;;;;;;5053127;28;20037;-64
2023/01/30 09:22:16;;;;;;;5.80;1.10;;;6.60;99.90;;;;;;5053556;28;20094;-64
2023/01/30 09:24:41;;;;;;;7.38;1.67;;;6.60;99.90;;;;;;5053834;28;20037;-64
2023/01/30 09:27:07;;;;;;;10.80;1.85;;;6.70;99.90;;;;;;5053494;28;20484;-64
2023/01/30 09:29:33;;;;;;;9.15;1.38;;;6.80;99.90;;;;;;5053774;28;20045;-64
2023/01/30 09:31:58;;;;;;;6.65;1.65;;;6.80;99.90;;;;;;5053599;28;20040;-63
2023/01/30 09:34:28;;;;;;;2.05;1.23;;;6.90;99.90;;;;;;5053663;28;20479;-64
2023/01/30 09:37:00;;;;;;;9.98;1.45;;;6.90;99.90;;;;;;5053653;28;20498;-64
2023/01/30 09:39:27;;;;;;;5.75;1.52;;;6.90;99.90;;;;;;5052281;28;20077;-64
2023/01/30 09:42:34;;;;;;;6.63;1.73;;;6.90;99.90;;;;;;5052333;28;20533;-63
2023/01/30 09:45:21;;;;;;;10.15;1.35;;;7.00;99.90;;;;;;5011395;28;20415;-64
2023/01/30 09:47:50;;;;;;;15.80;1.85;;;7.10;99.90;;;;;;5052562;28;20053;-63
2023/01/30 09:50:46;;;;;;;6.43;1.63;;;7.20;99.90;;;;;;5052067;28;20036;-64
2023/01/30 09:53:19;;;;;;;4.07;1.65;;;7.20;99.90;;;;;;5053250;28;20037;-64
2023/01/30 09:55:45;;;;;;;5.40;1.42;;;7.20;99.90;;;;;;5052062;28;20052;-64
2023/01/30 09:58:23;;;;;;;13.50;1.95;;;7.10;99.90;;;;;;5051588;28;20464;-63
2023/01/30 10:00:53;;;;;;;7.95;1.40;;;6.90;99.90;;;;;;5052944;28;20041;-64
2023/01/30 10:03:33;;;;;;;3.40;1.30;;;6.80;99.90;;;;;;5051494;28;20061;-64
2023/01/30 10:06:11;;;;;;;17.13;1.50;;;6.70;99.90;;;;;;5035313;28;20483;-64
2023/01/30 10:08:58;;;;;;;7.53;1.50;;;6.70;99.90;;;;;;5051815;28;20295;-64
2023/01/30 10:11:51;;;;;;;4.15;1.15;;;6.80;99.90;;;;;;5051373;28;20132;-64
2023/01/30 10:14:42;;;;;;;4.65;1.08;;;6.70;99.90;;;;;;5052914;28;20037;-64
2023/01/30 10:17:33;;;;;;;7.53;1.80;;;6.70;99.90;;;;;;5051369;28;20087;-64
2023/01/30 10:20:31;;;;;;;4.05;1.67;;;6.90;99.90;;;;;;5052956;28;20206;-64
2023/01/30 10:23:15;;;;;;;11.15;1.70;;;6.90;99.90;;;;;;5052660;28;20127;-64
2023/01/30 10:25:51;;;;;;;11.98;1.75;;;6.90;99.90;;;;;;5052804;28;20047;-64
2023/01/30 10:28:20;;;;;;;5.63;1.83;;;7.00;99.90;;;;;;5052852;28;20052;-64
2023/01/30 10:30:48;;;;;;;5.20;1.23;;;7.00;99.90;;;;;;5052440;28;20049;-64
2023/01/30 10:33:31;;;;;;;6.80;2.20;;;7.00;99.90;;;;;;5052812;28;20489;-64
2023/01/30 10:36:01;;;;;;;16.60;2.53;;;7.10;99.90;;;;;;5052811;28;20044;-64
2023/01/30 10:38:34;;;;;;;12.75;1.52;;;7.20;99.90;;;;;;5052499;28;20120;-64
2023/01/30 10:41:23;;;;;;;12.90;2.60;;;7.20;99.90;;;;;;5052755;28;20099;-64
2023/01/30 10:44:12;;;;;;;3.88;1.08;;;7.20;99.90;;;;;;5046744;28;20395;-64
2023/01/30 10:46:46;;;;;;;6.20;1.67;;;7.00;99.90;;;;;;5047087;28;20051;-65
2023/01/30 10:49:21;;;;;;;10.90;1.60;;;6.90;99.90;;;;;;5052733;28;20116;-63
2023/01/30 10:51:54;;;;;;;1.05;0.45;;;6.60;99.90;;;;;;5051211;28;20040;-64
2023/01/30 10:54:26;;;;;;;1.75;0.85;;;6.40;99.90;;;;;;5052564;28;20088;-64
2023/01/30 10:57:02;;;;;;;1.92;0.63;;;6.20;99.90;;;;;;5052554;28;20464;-63
2023/01/30 10:59:45;;;;;;;3.13;0.70;;;6.00;99.90;;;;;;5050980;28;20036;-64
2023/01/30 11:02:44;;;;;;;1.85;0.43;;;5.90;99.90;;;;;;5052271;28;20125;-63
2023/01/30 11:05:21;;;;;;;3.65;0.30;;;5.80;99.90;;;;;;5031090;28;20064;-64
2023/01/30 11:07:48;;;;;;;3.55;1.02;;;5.80;99.90;;;;;;5052555;28;20041;-63
2023/01/30 11:10:22;;;;;;;4.30;0.75;;;5.90;99.90;;;;;;5034557;28;20095;-63
2023/01/30 11:12:56;;;;;;;0.50;0.50;;;6.00;99.90;;;;;;5052054;28;20033;-64
2023/01/30 11:15:24;;;;;;;0.90;0.40;;;6.20;99.90;;;;;;5052124;28;20095;-63
2023/01/30 11:17:50;;;;;;;2.75;0.77;;;6.30;99.90;;;;;;5052377;28;20033;-63
2023/01/30 11:20:18;;;;;;;3.42;0.73;;;6.80;99.90;;;;;;5050837;28;20048;-63
2023/01/30 11:23:06;;;;;;;3.83;1.50;;;6.50;99.90;;;;;;5051090;28;20048;-64
2023/01/30 11:25:47;;;;;;;2.28;0.65;;;6.60;99.90;;;;;;5050897;28;20095;-64
2023/01/30 11:28:16;;;;;;;5.45;0.90;;;6.70;99.90;;;;;;5050767;28;20045;-64
2023/01/30 11:30:42;;;;;;;5.13;1.58;;;6.80;99.90;;;;;;5052365;28;20119;-64
2023/01/30 11:33:13;;;;;;;9.25;1.63;;;6.90;99.90;;;;;;5051864;28;20123;-64
2023/01/30 11:35:43;;;;;;;;;;;7.00;99.90;;;;;;5052715;28;20041;-64
2023/01/30 11:38:23;;;;;;;4.05;1.35;;;7.00;99.90;;;;;;5051023;28;20355;-64
2023/01/30 11:40:59;;;;;;;6.65;1.25;;;7.00;99.90;;;;;;5052319;28;20116;-63
2023/01/30 11:43:27;;;;;;;6.53;1.00;;;7.10;99.90;;;;;;5055415;28;20041;-63
2023/01/30 11:45:54;;;;;;;3.60;1.15;;;7.00;99.90;;;;;;5055829;28;20029;-63
2023/01/30 11:48:24;;;;;;;5.88;1.45;;;7.20;99.90;;;;;;5055675;28;20045;-62
2023/01/30 11:50:57;;;;;;;3.75;0.68;;;7.20;99.90;;;;;;5055758;28;20616;-63
2023/01/30 11:53:31;;;;;;;4.68;1.25;;;7.10;99.90;;;;;;5055525;28;20396;-63
2023/01/30 11:56:03;;;;;;;7.05;1.23;;;7.10;99.90;;;;;;5055604;28;20048;-64
2023/01/30 11:58:34;;;;;;;6.80;0.95;;;7.10;99.90;;;;;;5054300;28;20033;-64
2023/01/30 12:01:00;;;;;;;4.50;0.75;;;7.20;99.90;;;;;;5055493;28;20497;-64
2023/01/30 12:03:28;;;;;;;7.03;0.75;;;7.30;99.90;;;;;;5055061;28;20045;-64
2023/01/30 12:05:56;;;;;;;4.57;0.93;;;7.30;99.90;;;;;;5053909;28;20072;-64
2023/01/30 12:08:25;;;;;;;4.32;1.33;;;7.30;99.90;;;;;;5055367;28;20110;-64
2023/01/30 12:11:01;;;;;;;4.95;1.00;;;7.10;99.90;;;;;;5055324;28;20044;-64
2023/01/30 12:14:13;;;;;;;1.52;0.50;;;7.30;99.90;;;;;;5055193;28;20385;-64
2023/01/30 12:17:01;;;;;;;2.50;0.93;;;7.30;99.90;;;;;;5039888;28;20164;-64
2023/01/30 12:19:42;;;;;;;10.25;0.88;;;7.30;99.90;;;;;;5055085;28;20411;-63
2023/01/30 12:22:27;;;;;;;7.82;0.50;;;7.20;99.90;;;;;;5055051;28;20068;-64
2023/01/30 12:24:59;;;;;;;1.90;0.35;;;7.20;99.90;;;;;;5055044;28;20086;-64
2023/01/30 12:27:53;;;;;;;5.60;0.98;;;7.20;99.90;;;;;;5054684;28;20122;-63
2023/01/30 12:30:50;;;;;;;10.35;1.55;;;7.10;99.90;;;;;;5054858;28;20040;-65
2023/01/30 12:33:16;;;;;;;2.05;1.27;;;7.10;99.90;;;;;;5053226;28;20053;-64
2023/01/30 12:36:00;;;;;;;2.63;1.00;;;7.20;99.90;;;;;;5053568;28;20033;-65
2023/01/30 12:39:06;;;;;;;1.33;0.70;;;7.10;99.90;;;;;;5054739;28;20108;-64
2023/01/30 12:41:53;;;;;;;13.48;1.33;;;7.40;99.90;;;;;;5054503;28;20059;-63
2023/01/30 12:44:50;;;;;;;12.93;2.05;;;7.70;99.90;;;;;;5053106;28;20041;-64
2023/01/30 12:47:40;;;;;;;4.55;0.90;;;7.70;99.90;;;;;;5054496;28;20045;-64
2023/01/30 12:50:32;;;;;;;3.53;0.95;;;7.80;99.90;;;;;;5053240;28;20049;-65
2023/01/30 12:53:23;;;;;;;3.97;0.60;;;8.00;99.90;;;;;;5053665;28;20048;-64
2023/01/30 12:55:58;;;;;;;6.68;1.40;;;8.00;30.50;;;;;;5054445;28;20041;-64
2023/01/30 12:58:42;;;;;;;4.88;1.05;;;8.00;5.10;;;;;;5054372;28;20044;-64
2023/01/30 13:01:15;;;;;;;5.47;1.00;;;8.00;1.00;;;;;;5054315;28;20037;-64
2023/01/30 13:03:50;;;;;;;3.65;1.65;;;7.80;1.00;;;;;;5053912;28;20049;-63
2023/01/30 13:06:34;;;;;;;10.52;1.42;;;7.80;1.00;;;;;;5054218;28;20368;-64
2023/01/30 13:09:20;;;;;;;6.18;1.08;;;7.80;1.00;;;;;;5052830;28;20551;-63
2023/01/30 13:12:05;;;;;;;12.32;1.40;;;7.80;1.00;;;;;;5053935;28;20175;-64
2023/01/30 13:14:59;;;;;;;7.70;1.00;;;7.80;1.00;;;;;;5054157;28;20082;-63
2023/01/30 13:17:27;;;;;;;7.68;1.58;;;7.80;1.00;;;;;;5053956;28;20121;-64
2023/01/30 13:20:11;;;;;;;4.90;1.17;;;7.70;1.00;;;;;;5053613;28;20181;-64
2023/01/30 13:23:01;;;;;;;2.75;0.95;;;7.70;1.00;;;;;;5053936;28;20094;-64
2023/01/30 13:25:37;;;;;;;7.95;1.20;;;7.70;1.00;;;;;;5053234;28;20049;-64
2023/01/30 13:28:10;;;;;;;8.73;1.25;;;7.70;1.00;;;;;;5052341;28;20094;-64